createdAt,value
2018-10-05T00:01:34.314Z,67.91
2018-10-05T00:04:02.044Z,68.34
2018-10-05T00:06:29.562Z,68.40
2018-10-05T00:08:57.090Z,68.45
2018-10-05T00:11:24.748Z,68.49
2018-10-05T00:13:52.180Z,68.50
2018-10-05T00:16:19.695Z,68.74
2018-10-05T00:18:47.310Z,68.30
2018-10-05T00:21:14.743Z,68.55
2018-10-05T00:23:42.244Z,69.13
2018-10-05T00:26:10.141Z,68.97
2018-10-05T00:28:37.683Z,69.13
2018-10-05T00:31:05.322Z,69.35
2018-10-05T00:33:33.146Z,69.47
2018-10-05T00:36:00.819Z,69.99
2018-10-05T00:38:28.566Z,69.98
2018-10-05T00:40:58.701Z,70.10
2018-10-05T00:43:26.604Z,70.44
2018-10-05T00:45:54.093Z,70.07
2018-10-05T00:48:21.739Z,70.37
2018-10-05T00:50:49.211Z,70.79
2018-10-05T00:53:16.731Z,70.23
2018-10-05T00:55:44.409Z,70.38
2018-10-05T00:58:11.855Z,70.60
2018-10-05T01:00:39.345Z,70.33
2018-10-05T01:03:07.035Z,70.40
2018-10-05T01:05:34.480Z,70.32
2018-10-05T01:08:01.960Z,70.37
2018-10-05T01:10:29.636Z,70.30
2018-10-05T01:12:57.097Z,70.46
2018-10-05T01:15:24.559Z,71.08
2018-10-05T01:17:52.295Z,71.22
2018-10-05T01:20:19.779Z,71.15
2018-10-05T01:22:47.243Z,71.68
2018-10-05T01:25:14.937Z,72.01
2018-10-05T01:27:42.679Z,72.04
2018-10-05T01:30:11.916Z,72.22
2018-10-05T01:32:40.300Z,72.42
2018-10-05T01:35:07.842Z,72.39
2018-10-05T01:37:35.334Z,72.56
2018-10-05T01:40:02.897Z,72.78
2018-10-05T01:42:30.403Z,73.09
2018-10-05T01:44:57.927Z,72.98
2018-10-05T01:47:25.608Z,73.00
2018-10-05T01:49:53.378Z,73.37
2018-10-05T01:52:20.829Z,73.44
2018-10-05T01:54:48.535Z,74.09
2018-10-05T01:57:16.015Z,74.35
2018-10-05T01:59:43.490Z,74.23
2018-10-05T02:02:11.192Z,74.73
2018-10-05T02:04:38.699Z,74.41
2018-10-05T02:07:06.196Z,74.59
2018-10-05T02:09:33.855Z,74.74
2018-10-05T02:12:01.441Z,75.27
2018-10-05T02:14:28.950Z,75.09
2018-10-05T02:16:56.805Z,75.48
2018-10-05T02:19:24.288Z,75.46
2018-10-05T02:21:51.740Z,75.67
2018-10-05T02:24:19.534Z,75.52
2018-10-05T02:26:46.416Z,75.86
2018-10-05T02:29:13.408Z,76.18
2018-10-05T02:31:40.571Z,75.91
2018-10-05T02:34:07.400Z,76.11
2018-10-05T02:36:34.826Z,76.48
2018-10-05T02:39:01.880Z,76.15
2018-10-05T02:41:28.752Z,76.11
2018-10-05T02:43:55.617Z,76.53
2018-10-05T02:46:22.660Z,76.96
2018-10-05T02:48:49.505Z,76.96
2018-10-05T02:51:16.421Z,76.73
2018-10-05T02:53:43.528Z,77.15
2018-10-05T02:56:10.370Z,77.20
2018-10-05T02:58:37.240Z,77.21
2018-10-05T03:01:09.961Z,77.11
2018-10-05T03:03:36.875Z,77.44
2018-10-05T03:06:03.761Z,77.44
2018-10-05T03:08:30.764Z,77.67
2018-10-05T03:10:57.624Z,77.67
2018-10-05T03:13:24.543Z,78.00
2018-10-05T03:15:51.664Z,78.11
2018-10-05T03:18:18.564Z,78.26
2018-10-05T03:20:45.517Z,78.12
2018-10-05T03:23:13.216Z,77.99
2018-10-05T03:25:40.678Z,78.52
2018-10-05T03:28:08.172Z,78.64
2018-10-05T03:30:36.120Z,78.60
2018-10-05T03:33:03.635Z,78.81
2018-10-05T03:35:31.131Z,78.59
2018-10-05T03:37:58.815Z,78.60
2018-10-05T03:40:26.289Z,78.34
2018-10-05T03:42:53.761Z,78.50
2018-10-05T03:45:21.381Z,78.78
2018-10-05T03:47:48.834Z,78.79
2018-10-05T03:50:16.321Z,78.68
2018-10-05T03:52:43.404Z,79.10
2018-10-05T03:55:10.371Z,79.11
2018-10-05T03:57:37.251Z,79.20
2018-10-05T04:00:04.468Z,79.09
2018-10-05T04:02:31.439Z,79.01
2018-10-05T04:04:58.327Z,78.96
2018-10-05T04:07:25.377Z,79.16
2018-10-05T04:09:52.246Z,79.17
2018-10-05T04:12:19.098Z,79.15
2018-10-05T04:14:46.137Z,79.19
2018-10-05T04:17:12.964Z,79.26
2018-10-05T04:19:39.805Z,79.73
2018-10-05T04:22:06.855Z,79.94
2018-10-05T04:24:33.711Z,79.87
2018-10-05T04:27:00.561Z,79.78
2018-10-05T04:29:27.601Z,80.10
2018-10-05T04:31:55.341Z,80.16
2018-10-05T04:34:22.785Z,79.62
2018-10-05T04:36:50.527Z,79.91
2018-10-05T04:39:17.995Z,79.63
2018-10-05T04:41:45.526Z,79.67
2018-10-05T04:44:13.244Z,79.78
2018-10-05T04:46:40.758Z,79.60
2018-10-05T04:49:08.232Z,80.12
2018-10-05T04:51:35.983Z,79.58
2018-10-05T04:54:03.476Z,79.66
2018-10-05T04:56:30.965Z,79.41
2018-10-05T04:58:58.621Z,79.59
2018-10-05T05:01:26.115Z,79.37
2018-10-05T05:03:53.645Z,79.28
2018-10-05T05:06:21.252Z,79.59
2018-10-05T05:08:48.780Z,79.78
2018-10-05T05:11:16.228Z,79.79
2018-10-05T05:13:43.793Z,80.01
2018-10-05T05:16:11.332Z,79.59
2018-10-05T05:18:38.768Z,79.82
2018-10-05T05:21:06.380Z,80.01
2018-10-05T05:23:33.893Z,79.50
2018-10-05T05:26:01.390Z,79.63
2018-10-05T05:28:29.099Z,79.29
2018-10-05T05:30:56.564Z,79.40
2018-10-05T05:33:24.216Z,79.73
2018-10-05T05:35:51.870Z,79.51
2018-10-05T05:38:19.386Z,79.49
2018-10-05T05:40:46.826Z,79.25
2018-10-05T05:43:14.642Z,79.58
2018-10-05T05:45:42.104Z,79.31
2018-10-05T05:48:09.624Z,79.71
2018-10-05T05:50:37.317Z,79.21
2018-10-05T05:53:04.837Z,79.34
2018-10-05T05:55:32.371Z,79.22
2018-10-05T05:57:59.922Z,78.97
2018-10-05T06:00:27.393Z,79.30
2018-10-05T06:02:54.960Z,79.40
2018-10-05T06:05:22.640Z,79.14
2018-10-05T06:07:50.164Z,78.97
2018-10-05T06:10:17.652Z,79.31
2018-10-05T06:12:45.352Z,79.05
2018-10-05T06:15:12.818Z,78.94
2018-10-05T06:17:40.423Z,79.12
2018-10-05T06:20:08.097Z,78.96
2018-10-05T06:22:35.853Z,79.44
2018-10-05T06:25:03.377Z,78.83
2018-10-05T06:27:31.193Z,79.02
2018-10-05T06:29:58.105Z,78.72
2018-10-05T06:32:24.945Z,78.58
2018-10-05T06:34:52.560Z,79.01
2018-10-05T06:37:20.221Z,78.94
2018-10-05T06:39:47.763Z,78.99
2018-10-05T06:42:15.676Z,78.95
2018-10-05T06:44:43.113Z,78.60
2018-10-05T06:47:10.654Z,79.13
2018-10-05T06:49:38.304Z,78.80
2018-10-05T06:52:05.956Z,78.53
2018-10-05T06:54:33.517Z,78.66
2018-10-05T06:57:01.239Z,78.73
2018-10-05T06:59:28.774Z,78.53
2018-10-05T07:01:56.433Z,78.62
2018-10-05T07:04:24.226Z,78.42
2018-10-05T07:06:51.694Z,78.35
2018-10-05T07:09:19.209Z,78.34
2018-10-05T07:11:46.885Z,78.29
2018-10-05T07:14:14.393Z,78.52
2018-10-05T07:16:41.882Z,77.86
2018-10-05T07:19:09.528Z,77.98
2018-10-05T07:21:37.022Z,77.89
2018-10-05T07:24:04.517Z,78.06
2018-10-05T07:26:32.243Z,77.80
2018-10-05T07:28:59.857Z,77.87
2018-10-05T07:31:27.361Z,77.83
2018-10-05T07:33:55.115Z,77.93
2018-10-05T07:36:22.710Z,77.64
2018-10-05T07:38:49.580Z,77.82
2018-10-05T07:41:17.473Z,77.51
2018-10-05T07:43:44.994Z,77.38
2018-10-05T07:46:12.512Z,77.11
2018-10-05T07:48:40.070Z,77.49
2018-10-05T07:51:07.551Z,77.51
2018-10-05T07:53:35.046Z,76.92
2018-10-05T07:56:02.740Z,77.21
2018-10-05T07:58:30.243Z,76.73
2018-10-05T08:00:57.742Z,76.70
2018-10-05T08:03:25.232Z,77.20
2018-10-05T08:05:52.744Z,76.61
2018-10-05T08:08:20.238Z,76.62
2018-10-05T08:10:47.981Z,76.10
2018-10-05T08:13:15.491Z,76.49
2018-10-05T08:15:43.060Z,76.39
2018-10-05T08:18:10.702Z,76.39
2018-10-05T08:20:38.233Z,76.14
2018-10-05T08:23:05.872Z,75.84
2018-10-05T08:25:33.683Z,76.08
2018-10-05T08:28:01.377Z,76.07
2018-10-05T08:30:28.788Z,75.86
2018-10-05T08:32:56.356Z,75.58
2018-10-05T08:35:23.309Z,75.79
2018-10-05T08:37:50.554Z,75.45
2018-10-05T08:40:17.778Z,75.71
2018-10-05T08:42:44.637Z,75.48
2018-10-05T08:45:11.550Z,75.24
2018-10-05T08:47:38.657Z,75.76
2018-10-05T08:50:05.560Z,75.24
2018-10-05T08:52:32.686Z,75.26
2018-10-05T08:55:00.250Z,75.01
2018-10-05T08:57:27.797Z,74.84
2018-10-05T08:59:55.291Z,74.74
2018-10-05T09:02:22.841Z,74.49
2018-10-05T09:04:50.349Z,74.63
2018-10-05T09:07:17.825Z,74.34
2018-10-05T09:09:45.402Z,74.45
2018-10-05T09:12:12.889Z,73.77
2018-10-05T09:14:40.444Z,73.54
2018-10-05T09:17:08.109Z,73.67
2018-10-05T09:19:35.546Z,73.36
2018-10-05T09:22:03.022Z,73.53
2018-10-05T09:24:37.460Z,73.12
2018-10-05T09:27:04.949Z,72.75
2018-10-05T09:29:32.424Z,72.88
2018-10-05T09:32:00.003Z,72.69
2018-10-05T09:34:27.537Z,72.10
2018-10-05T09:36:55.120Z,71.90
2018-10-05T09:39:23.312Z,71.84
2018-10-05T09:41:50.804Z,71.44
2018-10-05T09:44:18.394Z,71.42
2018-10-05T09:46:46.040Z,71.17
2018-10-05T09:49:13.521Z,70.99
2018-10-05T09:51:40.973Z,70.84
2018-10-05T09:54:08.962Z,70.39
2018-10-05T09:56:36.473Z,70.55
2018-10-05T09:59:04.046Z,70.28
2018-10-05T10:01:37.083Z,70.02
2018-10-05T10:04:04.737Z,69.57
2018-10-05T10:06:32.200Z,68.74
2018-10-05T10:08:59.678Z,68.96
2018-10-05T10:11:26.793Z,68.41
2018-10-05T10:13:53.758Z,67.63
2018-10-05T10:16:20.665Z,66.79
2018-10-05T10:18:47.791Z,66.21
2018-10-05T10:21:15.317Z,65.60
2018-10-05T10:23:42.792Z,65.59
2018-10-05T10:26:10.507Z,65.02
2018-10-05T10:28:38.114Z,64.46
2018-10-05T10:31:05.840Z,64.28
2018-10-05T10:33:33.048Z,63.93
2018-10-05T10:35:59.914Z,63.46
2018-10-05T10:38:26.789Z,62.73
2018-10-05T10:40:54.129Z,62.23
2018-10-05T10:43:21.030Z,61.32
2018-10-05T10:45:47.917Z,60.54
2018-10-05T10:48:15.047Z,59.56
2018-10-05T10:50:41.878Z,59.82
2018-10-05T10:53:09.412Z,58.35
2018-10-05T10:55:36.991Z,57.91
2018-10-05T10:58:04.504Z,58.16
2018-10-05T11:00:31.501Z,57.61
2018-10-05T11:02:59.146Z,56.91
2018-10-05T11:05:26.595Z,56.72
2018-10-05T11:07:54.116Z,56.09
2018-10-05T11:10:22.019Z,55.32
2018-10-05T11:12:49.457Z,55.28
2018-10-05T11:15:16.893Z,55.53
2018-10-05T11:17:44.490Z,55.27
2018-10-05T11:20:12.018Z,54.34
2018-10-05T11:22:39.461Z,53.60
2018-10-05T11:25:06.817Z,52.54
2018-10-05T11:27:33.685Z,53.19
2018-10-05T11:30:00.554Z,53.08
2018-10-05T11:32:27.882Z,53.15
2018-10-05T11:34:54.771Z,53.14
2018-10-05T11:37:21.680Z,52.87
2018-10-05T11:39:49.674Z,52.61
2018-10-05T11:42:17.500Z,51.41
2018-10-05T11:44:45.083Z,51.36
2018-10-05T11:47:12.858Z,51.60
2018-10-05T11:49:40.310Z,50.36
2018-10-05T11:52:07.867Z,49.02
2018-10-05T11:54:35.617Z,48.50
2018-10-05T11:57:03.153Z,49.12
2018-10-05T11:59:30.620Z,49.72
2018-10-05T12:01:58.401Z,49.95
2018-10-05T12:04:25.908Z,49.66
2018-10-05T12:06:53.430Z,49.15
2018-10-05T12:09:21.065Z,48.50
2018-10-05T12:11:48.589Z,47.47
2018-10-05T12:14:16.137Z,47.36
2018-10-05T12:16:43.818Z,47.05
2018-10-05T12:19:11.322Z,47.69
2018-10-05T12:21:38.933Z,48.02
2018-10-05T12:24:06.670Z,47.48
2018-10-05T12:26:34.223Z,47.37
2018-10-05T12:29:01.700Z,47.63
2018-10-05T12:31:29.446Z,47.74
2018-10-05T12:33:57.000Z,47.23
2018-10-05T12:36:24.518Z,47.44
2018-10-05T12:38:52.077Z,47.72
2018-10-05T12:41:19.566Z,47.27
2018-10-05T12:43:47.338Z,47.07
2018-10-05T12:46:15.050Z,47.62
2018-10-05T12:48:42.548Z,47.37
2018-10-05T12:51:10.057Z,47.48
2018-10-05T12:53:37.756Z,47.54
2018-10-05T12:56:05.267Z,47.68
2018-10-05T12:58:32.687Z,47.01
2018-10-05T13:01:00.452Z,47.13
2018-10-05T13:03:27.998Z,47.42
2018-10-05T13:05:55.484Z,47.17
2018-10-05T13:08:23.276Z,47.28
2018-10-05T13:10:50.750Z,47.53
2018-10-05T13:13:18.570Z,46.88
2018-10-05T13:15:46.424Z,46.65
2018-10-05T13:18:14.039Z,46.76
2018-10-05T13:20:41.559Z,46.07
2018-10-05T13:23:09.334Z,45.55
2018-10-05T13:25:36.859Z,46.48
2018-10-05T13:28:04.479Z,46.30
2018-10-05T13:30:32.315Z,46.73
2018-10-05T13:32:59.801Z,46.01
2018-10-05T13:35:27.552Z,46.52
2018-10-05T13:37:55.157Z,47.14
2018-10-05T13:40:22.699Z,47.00
2018-10-05T13:42:50.222Z,46.34
2018-10-05T13:45:18.007Z,46.18
2018-10-05T13:47:45.508Z,45.70
2018-10-05T13:50:13.546Z,46.36
2018-10-05T13:52:41.216Z,45.90
2018-10-05T13:55:08.660Z,45.61
2018-10-05T13:57:36.204Z,45.59
2018-10-05T14:00:04.990Z,45.60
2018-10-05T14:02:32.508Z,45.59
2018-10-05T14:04:59.901Z,45.83
2018-10-05T14:07:27.634Z,46.30
2018-10-05T14:09:55.078Z,46.13
2018-10-05T14:12:22.553Z,46.33
2018-10-05T14:14:50.181Z,46.15
2018-10-05T14:17:17.723Z,46.40
2018-10-05T14:19:45.198Z,46.13
2018-10-05T14:22:12.385Z,46.43
2018-10-05T14:24:39.855Z,45.77
2018-10-05T14:27:07.439Z,46.15
2018-10-05T14:29:35.391Z,46.17
2018-10-05T14:32:02.911Z,46.46
2018-10-05T14:34:30.401Z,46.64
2018-10-05T14:36:57.324Z,46.34
2018-10-05T14:39:24.925Z,46.29
2018-10-05T14:41:52.509Z,46.81
2018-10-05T14:44:20.122Z,46.84
2018-10-05T14:46:47.764Z,47.18
2018-10-05T14:49:14.626Z,46.75
2018-10-05T14:51:41.755Z,46.58
2018-10-05T14:54:09.428Z,46.96
2018-10-05T14:56:36.933Z,46.81
2018-10-05T14:59:04.545Z,46.72
2018-10-05T15:01:32.072Z,46.85
2018-10-05T15:03:59.645Z,46.98
2018-10-05T15:06:27.383Z,47.19
2018-10-05T15:08:54.834Z,47.32
2018-10-05T15:11:22.382Z,47.42
2018-10-05T15:13:49.980Z,47.28
2018-10-05T15:16:16.816Z,47.56
2018-10-05T15:18:44.288Z,47.06
2018-10-05T15:21:11.376Z,47.42
2018-10-05T15:23:38.291Z,47.75
2018-10-05T15:26:05.204Z,48.01
2018-10-05T15:28:32.219Z,47.60
2018-10-05T15:30:59.166Z,48.09
2018-10-05T15:33:26.102Z,48.15
2018-10-05T15:35:53.132Z,47.68
2018-10-05T15:38:20.043Z,47.88
2018-10-05T15:40:46.897Z,48.29
2018-10-05T15:43:13.894Z,48.25
2018-10-05T15:45:40.839Z,47.66
2018-10-05T15:48:07.923Z,48.20
2018-10-05T15:50:35.077Z,47.98
2018-10-05T15:53:02.073Z,48.45
2018-10-05T15:55:28.961Z,48.62
2018-10-05T15:57:56.139Z,48.21
2018-10-05T16:00:23.070Z,48.50
2018-10-05T16:02:50.597Z,48.57
2018-10-05T16:05:18.292Z,48.54
2018-10-05T16:07:45.776Z,48.48
2018-10-05T16:10:13.276Z,49.18
2018-10-05T16:12:41.313Z,48.96
2018-10-05T16:15:08.821Z,48.79
2018-10-05T16:17:35.684Z,48.86
2018-10-05T16:20:02.677Z,49.29
2018-10-05T16:22:29.573Z,48.87
2018-10-05T16:24:56.558Z,49.39
2018-10-05T16:27:23.822Z,49.43
2018-10-05T16:29:50.680Z,49.39
2018-10-05T16:32:17.526Z,49.35
2018-10-05T16:34:44.497Z,49.98
2018-10-05T16:37:11.389Z,49.99
2018-10-05T16:39:38.312Z,50.00
2018-10-05T16:42:05.515Z,50.05
2018-10-05T16:44:32.478Z,50.17
2018-10-05T16:46:59.398Z,50.23
2018-10-05T16:49:26.703Z,50.19
2018-10-05T16:51:53.593Z,50.04
2018-10-05T16:54:20.431Z,50.38
2018-10-05T16:56:47.552Z,50.38
2018-10-05T16:59:14.443Z,50.80
2018-10-05T17:01:41.394Z,50.99
2018-10-05T17:04:08.425Z,50.74
2018-10-05T17:06:35.320Z,50.81
2018-10-05T17:09:09.873Z,50.48
2018-10-05T17:11:44.632Z,51.18
2018-10-05T17:14:11.604Z,50.80
2018-10-05T17:16:38.555Z,51.20
2018-10-05T17:19:05.742Z,51.20
2018-10-05T17:21:33.143Z,51.40
2018-10-05T17:24:00.014Z,51.57
2018-10-05T17:26:27.129Z,51.33
2018-10-05T17:28:54.071Z,51.87
2018-10-05T17:31:20.943Z,51.54
2018-10-05T17:33:48.022Z,51.84
2018-10-05T17:36:14.966Z,51.85
2018-10-05T17:38:41.839Z,52.47
2018-10-05T17:41:08.868Z,52.14
2018-10-05T17:43:35.704Z,52.33
2018-10-05T17:46:02.659Z,52.28
2018-10-05T17:48:29.846Z,52.04
2018-10-05T17:50:57.030Z,52.50
2018-10-05T17:53:23.921Z,52.66
2018-10-05T17:55:51.132Z,52.47
2018-10-05T17:58:18.011Z,53.02
2018-10-05T18:00:45.043Z,52.92
2018-10-05T18:03:12.222Z,53.05
2018-10-05T18:05:39.138Z,53.01
2018-10-05T18:08:06.008Z,53.06
2018-10-05T18:10:33.052Z,53.13
2018-10-05T18:12:59.961Z,53.08
2018-10-05T18:15:26.759Z,53.24
2018-10-05T18:17:53.846Z,53.14
2018-10-05T18:20:20.707Z,53.36
2018-10-05T18:22:47.539Z,53.58
2018-10-05T18:25:14.569Z,53.26
2018-10-05T18:27:41.428Z,53.20
2018-10-05T18:30:08.518Z,53.10
2018-10-05T18:32:35.593Z,53.41
2018-10-05T18:35:02.470Z,54.02
2018-10-05T18:37:29.382Z,53.94
2018-10-05T18:39:56.490Z,53.62
2018-10-05T18:42:23.437Z,53.79
2018-10-05T18:44:50.420Z,53.78
2018-10-05T18:47:17.469Z,53.56
2018-10-05T18:49:44.432Z,53.98
2018-10-05T18:52:11.468Z,54.08
2018-10-05T18:54:38.406Z,53.96
2018-10-05T18:57:10.854Z,53.83
2018-10-05T18:59:37.828Z,53.93
2018-10-05T19:02:04.921Z,54.42
2018-10-05T19:04:31.808Z,54.38
2018-10-05T19:06:58.796Z,54.06
2018-10-05T19:09:26.038Z,54.24
2018-10-05T19:11:52.905Z,54.63
2018-10-05T19:14:19.842Z,54.30
2018-10-05T19:16:46.894Z,54.74
2018-10-05T19:19:13.752Z,54.60
2018-10-05T19:21:40.591Z,55.19
2018-10-05T19:24:07.660Z,55.26
2018-10-05T19:26:34.854Z,55.09
2018-10-05T19:29:01.792Z,54.97
2018-10-05T19:31:28.894Z,55.12
2018-10-05T19:33:55.784Z,55.19
2018-10-05T19:36:22.748Z,55.11
2018-10-05T19:38:49.658Z,55.12
2018-10-05T19:41:16.530Z,55.23
2018-10-05T19:43:43.418Z,55.38
2018-10-05T19:46:10.600Z,55.58
2018-10-05T19:48:37.507Z,55.47
2018-10-05T19:51:04.350Z,55.61
2018-10-05T19:53:31.758Z,55.37
2018-10-05T19:55:58.643Z,55.72
2018-10-05T19:58:25.507Z,55.54
2018-10-05T20:00:52.644Z,55.94
2018-10-05T20:03:19.568Z,55.80
2018-10-05T20:05:46.557Z,55.96
2018-10-05T20:08:13.866Z,55.95
2018-10-05T20:10:40.935Z,55.71
2018-10-05T20:13:07.821Z,55.97
2018-10-05T20:15:34.749Z,55.95
2018-10-05T20:18:01.896Z,56.31
2018-10-05T20:20:28.635Z,55.95
2018-10-05T20:22:55.494Z,56.23
2018-10-05T20:25:22.475Z,56.36
2018-10-05T20:27:49.446Z,56.64
2018-10-05T20:30:16.364Z,56.41
2018-10-05T20:32:43.331Z,56.40
2018-10-05T20:35:10.253Z,56.64
2018-10-05T20:37:37.378Z,56.60
2018-10-05T20:40:04.377Z,56.52
2018-10-05T20:42:31.304Z,56.95
2018-10-05T20:44:58.261Z,56.68
2018-10-05T20:47:26.022Z,56.86
2018-10-05T20:49:52.836Z,56.85
2018-10-05T20:52:19.746Z,56.90
2018-10-05T20:54:46.753Z,56.80
2018-10-05T20:57:18.592Z,56.85
2018-10-05T20:59:45.502Z,56.98
2018-10-05T21:02:12.558Z,56.56
2018-10-05T21:04:39.448Z,56.83
2018-10-05T21:07:06.463Z,56.75
2018-10-05T21:09:33.364Z,56.69
2018-10-05T21:12:00.262Z,56.98
2018-10-05T21:14:27.673Z,56.54
2018-10-05T21:16:54.538Z,56.41
2018-10-05T21:19:21.433Z,56.46
2018-10-05T21:21:48.486Z,56.34
2018-10-05T21:24:15.380Z,56.15
2018-10-05T21:26:42.314Z,56.44
2018-10-05T21:29:09.571Z,56.46
2018-10-05T21:31:36.500Z,56.19
2018-10-05T21:34:03.471Z,56.35
2018-10-05T21:36:30.488Z,56.28
2018-10-05T21:38:57.502Z,56.79
2018-10-05T21:41:24.391Z,56.44
2018-10-05T21:43:51.886Z,56.24
2018-10-05T21:46:18.809Z,56.13
2018-10-05T21:48:45.641Z,56.63
2018-10-05T21:51:12.678Z,56.53
2018-10-05T21:53:39.555Z,56.79
2018-10-05T21:56:06.634Z,56.71
2018-10-05T21:58:33.708Z,56.57
2018-10-05T22:01:00.601Z,56.87
2018-10-05T22:03:29.862Z,56.95
2018-10-05T22:05:56.896Z,57.08
2018-10-05T22:08:23.806Z,56.81
2018-10-05T22:10:50.682Z,56.59
2018-10-05T22:13:17.739Z,56.92
2018-10-05T22:15:44.644Z,56.52
2018-10-05T22:18:11.525Z,56.54
2018-10-05T22:20:38.648Z,56.95
2018-10-05T22:23:05.569Z,56.90
2018-10-05T22:25:32.517Z,57.33
2018-10-05T22:27:59.658Z,57.14
2018-10-05T22:30:26.564Z,56.86
2018-10-05T22:32:53.438Z,57.37
2018-10-05T22:35:20.435Z,57.03
2018-10-05T22:37:47.328Z,57.25
2018-10-05T22:40:14.223Z,57.63
2018-10-05T22:42:55.751Z,57.16
2018-10-05T22:45:22.679Z,57.59
2018-10-05T22:47:49.606Z,57.94
2018-10-05T22:50:16.692Z,57.94
2018-10-05T22:52:43.610Z,57.93
2018-10-05T22:55:10.512Z,57.65
2018-10-05T22:57:37.764Z,57.99
2018-10-05T23:00:04.885Z,58.07
2018-10-05T23:02:31.767Z,58.24
2018-10-05T23:04:58.775Z,58.54
2018-10-05T23:07:25.724Z,58.47
2018-10-05T23:09:52.624Z,58.58
2018-10-05T23:12:19.658Z,58.55
2018-10-05T23:14:46.608Z,58.70
2018-10-05T23:17:13.437Z,58.39
2018-10-05T23:19:40.525Z,58.78
2018-10-05T23:22:07.424Z,59.08
2018-10-05T23:24:34.316Z,58.69
2018-10-05T23:27:01.385Z,59.30
2018-10-05T23:32:04.917Z,58.87
2018-10-05T23:34:31.808Z,59.20
2018-10-05T23:36:58.724Z,59.11
2018-10-05T23:39:25.840Z,58.76
2018-10-05T23:41:53.387Z,59.25
2018-10-05T23:44:20.285Z,59.22
2018-10-05T23:46:47.335Z,59.26
2018-10-05T23:49:14.220Z,59.24
2018-10-05T23:51:41.110Z,59.09
2018-10-05T23:54:08.374Z,58.95
2018-10-05T23:56:35.326Z,59.01
2018-10-05T23:59:02.437Z,59.18
